Список аэропортов
Фактическая погода:

23 апреля, 12:30
Температура: +9°C (+6.3*)
Ветер: сев.-западный 5 м/с
Давление: *758 мм
неб. облачность
900 м
Время (МСК)Темп. СВетерВлажностьДавлениеОблачностьОсадки
09:00+6СЗ, 3 м/с79%1009 гПаясно
10:00+7СЗ, 3 м/с60%1010 гПаясно
11:00+8СЗ, 3 м/с48%1010 гПаясно
12:00+9СЗ, 4 м/с44%1011 гПаясно
13:00+9СЗ, 4 м/с40%1010 гПаясно
14:00+10СЗ, 5 м/с43%1011 гПаясно
15:00+10СЗ, 5 м/с44%1011 гПаясно
16:00+9СЗ, 5 м/с45%1010 гПаясно
17:00+9СЗ, 4 м/с46%1011 гПаясно
18:00+9СЗ, 4 м/с45%1010 гПаясно
19:00+8СЗ, 3 м/с48%1010 гПаясно
20:00+7СЗ, 2 м/с60%1010 гПаясно
21:00+4СЗ, 1 м/с80%1011 гПаясно
22:00+3З, 1 м/с90%1011 гПаясно
23:00+2ЮЗ, 2 м/с96%1011 гПамалооблачно
24 апреля
00:00+1ЮЗ, 2 м/с99%1011 гПас прояснениями
01:00+1ЮЗ, 2 м/с99%1011 гПаоблачно
02:00+1ЮЗ, 2 м/с99%1011 гПаоблачно
03:000ЮЗ, 2 м/с99%1010 гПаоблачно
04:000ЮЗ, 2 м/с98%1010 гПамалооблачно
05:000ЮЗ, 2 м/с97%1010 гПаясно
06:000ЮЗ, 2 м/с98%1011 гПамалооблачно
07:000ЮЗ, 3 м/с98%1011 гПамалооблачно
08:00+2ЮЗ, 3 м/с97%1011 гПамалооблачно
09:00+5З, 4 м/с89%1012 гПаясно
10:00+7З, 5 м/с69%1012 гПаясно
11:00+8З, 6 м/с58%1012 гПамалооблачно
12:00+9З, 5 м/с56%1012 гПамалооблачно
13:00+9З, 5 м/с51%1012 гПаоблачно
14:00+9З, 5 м/с46%1012 гПаоблачно
15:00+10З, 5 м/с46%1012 гПаоблачно
16:00+10ЮЗ, 5 м/с40%1011 гПаоблачно
17:00+10ЮЗ, 5 м/с44%1011 гПаоблачно
18:00+9ЮЗ, 5 м/с47%1010 гПаоблачно
19:00+9ЮЗ, 5 м/с51%1010 гПаоблачносл. дождь
20:00+8Ю, 4 м/с60%1009 гПаоблачносл. дождь
21:00+7Ю, 4 м/с72%1009 гПаоблачносл. дождь
22:00+7Ю, 4 м/с77%1008 гПаоблачносл. дождь
23:00+7Ю, 5 м/с76%1007 гПаоблачносл. дождь
25 апреля
00:00+7Ю, 5 м/с72%1007 гПаоблачно
01:00+8Ю, 5 м/с66%1006 гПаоблачно
02:00+8Ю, 5 м/с68%1005 гПаоблачносл. дождь
03:00+7Ю, 5 м/с73%1004 гПаоблачносл. дождь
04:00+7Ю, 5 м/с78%1004 гПаоблачносл. дождь
05:00+6Ю, 5 м/с80%1003 гПаоблачносл. дождь
06:00+6Ю, 4 м/с80%1002 гПаоблачносл. дождь
07:00+7Ю, 4 м/с78%1002 гПаоблачносл. дождь
08:00+7Ю, 5 м/с79%1001 гПаоблачносл. дождь
09:00+9Ю, 6 м/с71%1001 гПаоблачно